sensor_id;sensor_type;location;lat;lon;timestamp;pressure;altitude;pressure_sealevel;temperature;humidity
5679;BME280;2862;52.560;13.566;2022-09-14T00:04:46;99877.06;;;15.29;78.55
5679;BME280;2862;52.560;13.566;2022-09-14T00:14:50;99876.94;;;15.23;78.46
5679;BME280;2862;52.560;13.566;2022-09-14T00:24:53;99871.78;;;15.13;78.08
5679;BME280;2862;52.560;13.566;2022-09-14T00:34:57;99857.16;;;15.07;78.54
5679;BME280;2862;52.560;13.566;2022-09-14T00:45:05;99842.72;;;15.08;78.56
5679;BME280;2862;52.560;13.566;2022-09-14T00:55:12;99835.03;;;14.97;78.42
5679;BME280;2862;52.560;13.566;2022-09-14T01:05:16;99832.03;;;14.92;78.34
5679;BME280;2862;52.560;13.566;2022-09-14T01:15:25;99821.63;;;14.89;78.70
5679;BME280;2862;52.560;13.566;2022-09-14T01:25:42;99818.47;;;14.85;78.85
5679;BME280;2862;52.560;13.566;2022-09-14T01:35:55;99816.31;;;14.73;78.95
5679;BME280;2862;52.560;13.566;2022-09-14T01:46:03;99816.06;;;14.59;79.80
5679;BME280;2862;52.560;13.566;2022-09-14T01:56:16;99819.66;;;14.52;79.50
5679;BME280;2862;52.560;13.566;2022-09-14T02:06:24;99821.84;;;14.48;80.25
5679;BME280;2862;52.560;13.566;2022-09-14T02:16:30;99819.50;;;14.37;79.98
5679;BME280;2862;52.560;13.566;2022-09-14T02:26:34;99810.94;;;14.33;80.68
5679;BME280;2862;52.560;13.566;2022-09-14T02:36:45;99812.31;;;14.29;80.83
5679;BME280;2862;52.560;13.566;2022-09-14T02:46:54;99804.25;;;14.29;81.43
5679;BME280;2862;52.560;13.566;2022-09-14T02:57:01;99796.19;;;14.29;81.25
5679;BME280;2862;52.560;13.566;2022-09-14T03:07:05;99800.91;;;14.19;82.01
5679;BME280;2862;52.560;13.566;2022-09-14T03:17:09;99803.09;;;14.16;82.67
5679;BME280;2862;52.560;13.566;2022-09-14T03:27:12;99801.88;;;14.26;82.29
5679;BME280;2862;52.560;13.566;2022-09-14T03:37:16;99803.41;;;14.29;82.24
5679;BME280;2862;52.560;13.566;2022-09-14T03:47:19;99787.28;;;14.29;81.98
5679;BME280;2862;52.560;13.566;2022-09-14T03:57:23;99786.91;;;14.32;81.78
5679;BME280;2862;52.560;13.566;2022-09-14T04:07:26;99783.28;;;14.17;82.59
5679;BME280;2862;52.560;13.566;2022-09-14T04:17:31;99786.72;;;13.94;83.61
5679;BME280;2862;52.560;13.566;2022-09-14T04:27:34;99793.25;;;14.00;83.26
5679;BME280;2862;52.560;13.566;2022-09-14T04:37:38;99784.00;;;14.02;83.53
5679;BME280;2862;52.560;13.566;2022-09-14T04:47:41;99781.78;;;14.14;83.38
5679;BME280;2862;52.560;13.566;2022-09-14T04:57:45;99770.97;;;14.30;82.75
5679;BME280;2862;52.560;13.566;2022-09-14T05:07:48;99769.59;;;14.97;79.60
5679;BME280;2862;52.560;13.566;2022-09-14T05:17:52;99750.94;;;17.09;71.50
5679;BME280;2862;52.560;13.566;2022-09-14T05:27:55;99763.47;;;16.23;74.74
5679;BME280;2862;52.560;13.566;2022-09-14T05:38:00;99759.13;;;16.07;75.81
5679;BME280;2862;52.560;13.566;2022-09-14T05:48:03;99764.75;;;16.41;74.05
5679;BME280;2862;52.560;13.566;2022-09-14T05:58:07;99757.00;;;16.89;71.73
5679;BME280;2862;52.560;13.566;2022-09-14T06:08:11;99749.28;;;17.08;71.09
5679;BME280;2862;52.560;13.566;2022-09-14T06:18:15;99750.72;;;18.16;66.52
5679;BME280;2862;52.560;13.566;2022-09-14T06:28:18;99741.53;;;18.58;65.03
5679;BME280;2862;52.560;13.566;2022-09-14T06:38:23;99728.50;;;20.39;59.37
5679;BME280;2862;52.560;13.566;2022-09-14T06:48:26;99725.47;;;24.36;49.25
5679;BME280;2862;52.560;13.566;2022-09-14T06:58:31;99724.50;;;26.22;42.20
5679;BME280;2862;52.560;13.566;2022-09-14T07:08:35;99727.75;;;25.80;44.28
5679;BME280;2862;52.560;13.566;2022-09-14T07:18:40;99737.13;;;23.14;51.00
5679;BME280;2862;52.560;13.566;2022-09-14T07:28:45;99739.63;;;22.56;52.14
5679;BME280;2862;52.560;13.566;2022-09-14T07:38:49;99733.00;;;24.05;47.92
5679;BME280;2862;52.560;13.566;2022-09-14T07:48:54;99738.84;;;23.62;48.91
5679;BME280;2862;52.560;13.566;2022-09-14T07:58:59;99741.06;;;24.12;46.61
5679;BME280;2862;52.560;13.566;2022-09-14T08:09:18;99741.91;;;23.54;49.30
5679;BME280;2862;52.560;13.566;2022-09-14T08:19:22;99742.50;;;23.44;48.05
5679;BME280;2862;52.560;13.566;2022-09-14T08:29:25;99744.19;;;23.03;48.91
5679;BME280;2862;52.560;13.566;2022-09-14T08:39:29;99726.13;;;23.32;48.45
5679;BME280;2862;52.560;13.566;2022-09-14T08:49:39;99720.31;;;23.41;45.55
5679;BME280;2862;52.560;13.566;2022-09-14T08:59:51;99723.94;;;22.21;48.38
5679;BME280;2862;52.560;13.566;2022-09-14T09:09:58;99723.88;;;21.84;50.27
5679;BME280;2862;52.560;13.566;2022-09-14T09:20:09;99721.72;;;21.93;50.09
5679;BME280;2862;52.560;13.566;2022-09-14T09:30:14;99722.44;;;21.63;50.23
5679;BME280;2862;52.560;13.566;2022-09-14T09:40:24;99717.94;;;22.12;49.24
5679;BME280;2862;52.560;13.566;2022-09-14T09:50:28;99711.34;;;22.38;46.41
5679;BME280;2862;52.560;13.566;2022-09-14T10:00:32;99704.31;;;21.76;47.06
5679;BME280;2862;52.560;13.566;2022-09-14T10:10:40;99692.75;;;21.80;48.55
5679;BME280;2862;52.560;13.566;2022-09-14T10:21:05;99684.88;;;21.90;46.63
5679;BME280;2862;52.560;13.566;2022-09-14T10:31:14;99678.66;;;22.01;47.49
5679;BME280;2862;52.560;13.566;2022-09-14T10:41:27;99679.81;;;22.12;46.28
5679;BME280;2862;52.560;13.566;2022-09-14T10:51:41;99658.59;;;22.63;44.10
5679;BME280;2862;52.560;13.566;2022-09-14T11:02:00;99668.56;;;22.09;43.56
5679;BME280;2862;52.560;13.566;2022-09-14T11:12:15;99661.50;;;22.01;45.88
5679;BME280;2862;52.560;13.566;2022-09-14T11:22:28;99658.69;;;22.44;46.10
5679;BME280;2862;52.560;13.566;2022-09-14T11:32:37;99666.50;;;22.04;46.19
5679;BME280;2862;52.560;13.566;2022-09-14T11:42:49;99665.06;;;21.46;46.11
5679;BME280;2862;52.560;13.566;2022-09-14T11:53:00;99658.03;;;21.94;45.06
5679;BME280;2862;52.560;13.566;2022-09-14T12:03:16;99645.78;;;21.85;45.53
5679;BME280;2862;52.560;13.566;2022-09-14T12:13:19;99645.88;;;21.60;45.87
5679;BME280;2862;52.560;13.566;2022-09-14T12:23:27;99648.38;;;21.80;45.97
5679;BME280;2862;52.560;13.566;2022-09-14T12:33:43;99635.25;;;22.07;46.11
5679;BME280;2862;52.560;13.566;2022-09-14T12:44:29;99630.66;;;21.89;45.99
5679;BME280;2862;52.560;13.566;2022-09-14T12:54:42;99627.66;;;21.79;47.44
5679;BME280;2862;52.560;13.566;2022-09-14T13:04:52;99630.22;;;21.92;46.44
5679;BME280;2862;52.560;13.566;2022-09-14T13:14:59;99593.56;;;22.55;45.83
5679;BME280;2862;52.560;13.566;2022-09-14T13:25:16;99601.13;;;21.92;47.09
5679;BME280;2862;52.560;13.566;2022-09-14T13:35:32;99565.09;;;21.42;47.47
5679;BME280;2862;52.560;13.566;2022-09-14T13:45:38;99563.88;;;21.38;51.88
5679;BME280;2862;52.560;13.566;2022-09-14T13:55:44;99563.25;;;21.17;49.77
5679;BME280;2862;52.560;13.566;2022-09-14T14:05:49;99561.44;;;21.11;49.69
5679;BME280;2862;52.560;13.566;2022-09-14T14:15:59;99557.72;;;21.06;50.43
5679;BME280;2862;52.560;13.566;2022-09-14T14:26:22;99543.00;;;20.70;50.34
5679;BME280;2862;52.560;13.566;2022-09-14T14:36:31;99543.50;;;20.85;51.05
5679;BME280;2862;52.560;13.566;2022-09-14T14:46:36;99534.75;;;20.58;50.98
5679;BME280;2862;52.560;13.566;2022-09-14T14:56:41;99538.25;;;20.34;52.01
5679;BME280;2862;52.560;13.566;2022-09-14T15:06:47;99531.03;;;20.21;52.78
5679;BME280;2862;52.560;13.566;2022-09-14T15:16:50;99530.75;;;20.04;53.02
5679;BME280;2862;52.560;13.566;2022-09-14T15:26:57;99514.00;;;19.76;52.72
5679;BME280;2862;52.560;13.566;2022-09-14T15:37:04;99519.66;;;19.74;52.64
5679;BME280;2862;52.560;13.566;2022-09-14T15:47:15;99527.66;;;19.56;52.50
5679;BME280;2862;52.560;13.566;2022-09-14T15:57:39;99528.69;;;19.48;54.36
5679;BME280;2862;52.560;13.566;2022-09-14T16:07:51;99523.53;;;19.40;55.09
5679;BME280;2862;52.560;13.566;2022-09-14T16:17:56;99519.34;;;19.44;57.35
5679;BME280;2862;52.560;13.566;2022-09-14T16:28:01;99523.94;;;19.37;57.05
5679;BME280;2862;52.560;13.566;2022-09-14T16:38:06;99519.81;;;19.28;56.94
5679;BME280;2862;52.560;13.566;2022-09-14T16:48:12;99522.56;;;19.15;58.71
5679;BME280;2862;52.560;13.566;2022-09-14T16:58:16;99508.66;;;19.04;60.17
5679;BME280;2862;52.560;13.566;2022-09-14T17:08:22;99503.06;;;18.79;60.62
5679;BME280;2862;52.560;13.566;2022-09-14T17:18:37;99495.38;;;18.70;61.36
5679;BME280;2862;52.560;13.566;2022-09-14T17:28:42;99496.59;;;18.61;61.05
5679;BME280;2862;52.560;13.566;2022-09-14T17:38:49;99485.34;;;18.50;62.09
5679;BME280;2862;52.560;13.566;2022-09-14T17:48:58;99484.94;;;18.40;61.79
5679;BME280;2862;52.560;13.566;2022-09-14T17:59:44;99489.09;;;18.23;61.27
5679;BME280;2862;52.560;13.566;2022-09-14T18:09:54;99482.84;;;18.09;62.72
5679;BME280;2862;52.560;13.566;2022-09-14T18:20:01;99474.53;;;18.17;62.80
5679;BME280;2862;52.560;13.566;2022-09-14T18:30:10;99460.56;;;18.00;63.98
5679;BME280;2862;52.560;13.566;2022-09-14T18:40:14;99454.94;;;17.89;64.64
5679;BME280;2862;52.560;13.566;2022-09-14T18:50:23;99471.81;;;17.84;65.23
5679;BME280;2862;52.560;13.566;2022-09-14T19:00:27;99461.38;;;17.74;66.92
5679;BME280;2862;52.560;13.566;2022-09-14T19:10:34;99470.28;;;17.68;67.27
5679;BME280;2862;52.560;13.566;2022-09-14T19:20:39;99468.78;;;17.52;67.41
5679;BME280;2862;52.560;13.566;2022-09-14T19:31:08;99464.81;;;17.48;67.74
5679;BME280;2862;52.560;13.566;2022-09-14T19:41:11;99474.78;;;17.48;67.14
5679;BME280;2862;52.560;13.566;2022-09-14T19:51:19;99468.72;;;17.33;67.46
5679;BME280;2862;52.560;13.566;2022-09-14T20:01:23;99464.75;;;17.29;69.29
5679;BME280;2862;52.560;13.566;2022-09-14T20:11:29;99455.16;;;17.19;70.29
5679;BME280;2862;52.560;13.566;2022-09-14T20:21:32;99460.75;;;17.18;70.25
5679;BME280;2862;52.560;13.566;2022-09-14T20:31:38;99460.75;;;17.11;70.13
5679;BME280;2862;52.560;13.566;2022-09-14T20:41:41;99451.56;;;17.06;69.83
5679;BME280;2862;52.560;13.566;2022-09-14T20:51:45;99451.53;;;16.99;69.68
5679;BME280;2862;52.560;13.566;2022-09-14T21:01:49;99470.19;;;16.87;70.78
5679;BME280;2862;52.560;13.566;2022-09-14T21:11:54;99469.09;;;16.82;69.92
5679;BME280;2862;52.560;13.566;2022-09-14T21:21:57;99461.19;;;16.80;70.10
5679;BME280;2862;52.560;13.566;2022-09-14T21:32:01;99451.00;;;16.76;69.66
5679;BME280;2862;52.560;13.566;2022-09-14T21:42:07;99464.06;;;16.72;70.74
5679;BME280;2862;52.560;13.566;2022-09-14T21:52:11;99463.16;;;16.65;70.38
5679;BME280;2862;52.560;13.566;2022-09-14T22:02:14;99454.97;;;16.52;71.62
5679;BME280;2862;52.560;13.566;2022-09-14T22:12:18;99461.38;;;16.51;71.30
5679;BME280;2862;52.560;13.566;2022-09-14T22:22:21;99456.16;;;16.42;72.44
5679;BME280;2862;52.560;13.566;2022-09-14T22:32:26;99443.28;;;16.44;72.29
5679;BME280;2862;52.560;13.566;2022-09-14T22:42:29;99441.81;;;16.42;72.64
5679;BME280;2862;52.560;13.566;2022-09-14T22:52:33;99446.53;;;16.33;73.02
5679;BME280;2862;52.560;13.566;2022-09-14T23:02:36;99442.16;;;16.32;73.16
5679;BME280;2862;52.560;13.566;2022-09-14T23:12:40;99448.34;;;16.26;73.86
5679;BME280;2862;52.560;13.566;2022-09-14T23:22:43;99433.97;;;16.19;74.03
5679;BME280;2862;52.560;13.566;2022-09-14T23:32:47;99440.78;;;16.15;74.88
5679;BME280;2862;52.560;13.566;2022-09-14T23:42:50;99429.31;;;16.06;75.68
5679;BME280;2862;52.560;13.566;2022-09-14T23:52:55;99432.97;;;15.99;75.52
